Terminal Aerodrome Forecast
Issued by NWS

Home | Current Version | Previous Version | Text Only | Print | Product List | Glossary On
Versions: 1 2 3 4 5 6 7 8 9 10 11 12 13 14 15 16 17 18
000
FTUS45 KTFX 281141
TAFLWT
TAF
KLWT 281141Z 2812/0112 22015KT P6SM FEW050 BKN070
     FM281800 27010KT P6SM BKN060
     FM282200 30015KT P6SM -SHSN SCT025 BKN050
     FM010400 28010KT P6SM BKN050
     FM010600 26015G25KT P6SM SCT100=

USA.gov is the U.S. government's official web portal to all federal, state and local government web resources and services.